createdAt,value
2022-08-17T00:00:42.926Z,2.05
2022-08-17T00:03:10.448Z,2.35
2022-08-17T00:05:48.775Z,1.58
2022-08-17T00:08:23.927Z,1.85
2022-08-17T00:10:53.139Z,2.20
2022-08-17T00:13:27.506Z,2.05
2022-08-17T00:16:03.960Z,1.52
2022-08-17T00:19:06.891Z,1.58
2022-08-17T00:23:54.340Z,1.27
2022-08-17T00:26:43.742Z,1.33
2022-08-17T00:29:14.905Z,1.70
2022-08-17T00:31:48.750Z,1.30
2022-08-17T00:34:16.879Z,1.55
2022-08-17T00:36:44.373Z,1.00
2022-08-17T00:39:11.945Z,1.52
2022-08-17T00:41:42.286Z,1.15
2022-08-17T00:44:12.116Z,1.20
2022-08-17T00:46:43.710Z,1.40
2022-08-17T00:49:14.062Z,1.50
2022-08-17T00:51:56.827Z,1.20
2022-08-17T00:54:33.513Z,1.42
2022-08-17T00:57:35.082Z,1.20
2022-08-17T01:00:21.397Z,1.80
2022-08-17T01:02:49.654Z,1.25
2022-08-17T01:05:23.806Z,1.88
2022-08-17T01:07:53.822Z,1.75
2022-08-17T01:10:59.918Z,1.48
2022-08-17T01:13:27.764Z,0.93
2022-08-17T01:16:05.995Z,1.15
2022-08-17T01:18:34.508Z,1.67
2022-08-17T01:21:10.962Z,1.10
2022-08-17T01:23:38.503Z,1.33
2022-08-17T01:26:06.618Z,1.65
2022-08-17T01:28:54.328Z,1.33
2022-08-17T01:31:30.293Z,1.38
2022-08-17T01:34:02.732Z,4.80
2022-08-17T01:36:30.903Z,1.33
2022-08-17T01:38:58.521Z,1.67
2022-08-17T01:41:27.254Z,1.40
2022-08-17T01:46:36.296Z,1.27
2022-08-17T01:49:11.196Z,1.30
2022-08-17T01:51:39.353Z,1.95
2022-08-17T01:54:13.489Z,1.55
2022-08-17T01:56:47.144Z,1.00
2022-08-17T01:59:18.316Z,1.20
2022-08-17T02:01:47.003Z,0.98
2022-08-17T02:04:15.063Z,1.48
2022-08-17T02:06:53.618Z,0.98
2022-08-17T02:11:56.356Z,1.45
2022-08-17T02:14:25.861Z,1.35
2022-08-17T02:19:22.475Z,0.90
2022-08-17T02:21:52.766Z,1.67
2022-08-17T02:24:58.307Z,1.10
2022-08-17T02:27:27.659Z,0.80
2022-08-17T02:29:55.156Z,0.98
2022-08-17T02:32:27.609Z,1.02
2022-08-17T02:35:01.675Z,1.00
2022-08-17T02:37:30.397Z,1.27
2022-08-17T02:39:59.925Z,1.42
2022-08-17T02:42:36.538Z,0.90
2022-08-17T02:45:11.223Z,0.88
2022-08-17T02:47:38.866Z,1.05
2022-08-17T02:50:09.895Z,1.25
2022-08-17T02:52:43.635Z,0.90
2022-08-17T02:55:34.305Z,1.27
2022-08-17T02:58:03.653Z,1.05
2022-08-17T03:00:41.106Z,1.02
2022-08-17T03:03:10.962Z,0.70
2022-08-17T03:05:39.353Z,0.80
2022-08-17T03:08:11.723Z,0.83
2022-08-17T03:10:42.882Z,1.20
2022-08-17T03:13:12.913Z,0.82
2022-08-17T03:15:43.966Z,0.98
2022-08-17T03:18:25.362Z,0.80
2022-08-17T03:20:57.215Z,1.50
2022-08-17T03:23:26.070Z,1.00
2022-08-17T03:25:56.007Z,0.95
2022-08-17T03:28:25.132Z,0.75
2022-08-17T03:30:53.001Z,1.50
2022-08-17T03:33:20.841Z,0.65
2022-08-17T03:35:48.746Z,1.35
2022-08-17T03:38:17.235Z,1.13
2022-08-17T03:40:56.971Z,1.15
2022-08-17T03:43:32.827Z,0.65
2022-08-17T03:46:34.778Z,1.13
2022-08-17T03:49:25.341Z,1.10
2022-08-17T03:52:13.181Z,1.15
2022-08-17T03:55:01.160Z,1.10
2022-08-17T03:57:30.203Z,1.02
2022-08-17T03:59:58.102Z,1.05
2022-08-17T04:02:30.329Z,1.08
2022-08-17T04:04:58.731Z,1.80
2022-08-17T04:07:30.789Z,1.20
2022-08-17T04:09:59.513Z,1.40
2022-08-17T04:12:31.700Z,1.02
2022-08-17T04:14:59.822Z,1.38
2022-08-17T04:17:29.704Z,1.70
2022-08-17T04:19:58.142Z,1.40
2022-08-17T04:22:32.622Z,1.27
2022-08-17T04:25:18.625Z,1.90
2022-08-17T04:27:46.408Z,1.73
2022-08-17T04:30:15.015Z,1.73
2022-08-17T04:33:07.332Z,1.27
2022-08-17T04:35:45.804Z,1.40
2022-08-17T04:38:17.992Z,1.55
2022-08-17T04:41:05.558Z,1.73
2022-08-17T04:43:35.132Z,1.60
2022-08-17T04:46:11.340Z,1.40
2022-08-17T04:48:49.095Z,1.25
2022-08-17T04:51:24.314Z,1.10
2022-08-17T04:53:59.564Z,1.42
2022-08-17T04:56:46.653Z,1.55
2022-08-17T04:59:18.910Z,1.00
2022-08-17T05:01:55.623Z,1.70
2022-08-17T05:04:34.489Z,1.35
2022-08-17T05:07:04.649Z,1.42
2022-08-17T05:09:32.647Z,1.98
2022-08-17T05:12:04.058Z,1.63
2022-08-17T05:14:32.736Z,1.83
2022-08-17T05:17:06.997Z,2.08
2022-08-17T05:19:37.397Z,1.90
2022-08-17T05:22:06.220Z,1.52
2022-08-17T05:27:18.848Z,1.70
2022-08-17T05:29:46.692Z,1.88
2022-08-17T05:32:37.920Z,2.13
2022-08-17T05:35:02.999Z,1.60
2022-08-17T05:37:30.461Z,2.03
2022-08-17T05:39:58.012Z,2.67
2022-08-17T05:42:25.743Z,1.17
2022-08-17T05:44:53.193Z,0.98
2022-08-17T05:47:23.010Z,1.48
2022-08-17T05:49:50.889Z,1.67
2022-08-17T05:52:32.595Z,1.85
2022-08-17T05:55:18.147Z,1.70
2022-08-17T05:58:16.176Z,1.83
2022-08-17T06:00:55.948Z,1.92
2022-08-17T06:03:35.112Z,2.28
2022-08-17T06:06:21.182Z,2.03
2022-08-17T06:09:33.620Z,1.98
2022-08-17T06:12:20.091Z,2.33
2022-08-17T06:15:12.778Z,1.80
2022-08-17T06:17:42.380Z,1.60
2022-08-17T06:20:15.745Z,1.77
2022-08-17T06:22:52.164Z,2.67
2022-08-17T06:25:37.951Z,1.85
2022-08-17T06:28:14.818Z,2.35
2022-08-17T06:31:00.574Z,2.63
2022-08-17T06:33:37.509Z,2.72
2022-08-17T06:36:48.319Z,2.45
2022-08-17T06:40:13.436Z,2.70
2022-08-17T06:43:05.792Z,2.22
2022-08-17T06:46:08.303Z,2.78
2022-08-17T06:48:56.766Z,2.88
2022-08-17T06:51:40.424Z,2.97
2022-08-17T06:54:14.888Z,2.85
2022-08-17T06:56:55.444Z,3.05
2022-08-17T06:59:36.271Z,2.45
2022-08-17T07:03:02.491Z,3.67
2022-08-17T07:05:52.804Z,3.17
2022-08-17T07:08:35.180Z,3.67
2022-08-17T07:11:22.151Z,2.80
2022-08-17T07:14:37.797Z,2.67
2022-08-17T07:17:18.367Z,3.58
2022-08-17T07:19:50.234Z,3.17
2022-08-17T07:22:54.803Z,2.58
2022-08-17T07:25:24.241Z,3.13
2022-08-17T07:27:55.990Z,2.78
2022-08-17T07:30:46.930Z,3.05
2022-08-17T07:33:30.532Z,3.55
2022-08-17T07:35:59.381Z,3.13
2022-08-17T07:38:32.946Z,3.55
2022-08-17T07:41:10.025Z,3.35
2022-08-17T07:43:40.862Z,3.03
2022-08-17T07:46:40.251Z,3.00
2022-08-17T07:49:11.210Z,3.70
2022-08-17T07:51:45.722Z,3.08
2022-08-17T07:54:17.307Z,2.92
2022-08-17T07:56:57.596Z,2.45
2022-08-17T07:59:36.865Z,2.60
2022-08-17T08:02:34.312Z,2.67
2022-08-17T08:05:44.273Z,2.55
2022-08-17T08:08:25.663Z,2.85
2022-08-17T08:11:28.235Z,2.90
2022-08-17T08:13:57.368Z,2.40
2022-08-17T08:16:29.767Z,2.90
2022-08-17T08:19:01.404Z,3.05
2022-08-17T08:21:33.522Z,2.78
2022-08-17T08:24:56.838Z,3.35
2022-08-17T08:27:31.509Z,2.78
2022-08-17T08:30:15.138Z,2.67
2022-08-17T08:33:39.816Z,2.92
2022-08-17T08:37:17.151Z,3.45
2022-08-17T08:40:30.050Z,2.45
2022-08-17T08:43:36.261Z,2.78
2022-08-17T08:46:27.839Z,3.05
2022-08-17T08:49:45.107Z,2.13
2022-08-17T08:52:42.687Z,2.17
2022-08-17T08:55:42.975Z,2.47
2022-08-17T08:58:32.198Z,2.42
2022-08-17T09:01:40.828Z,2.50
2022-08-17T09:05:14.173Z,1.80
2022-08-17T09:08:12.696Z,2.42
2022-08-17T09:32:59.928Z,1.85
2022-08-17T09:35:37.437Z,1.73
2022-08-17T09:39:14.984Z,1.67
2022-08-17T09:42:24.255Z,1.90
2022-08-17T09:45:52.260Z,2.10
2022-08-17T09:51:13.646Z,2.05
2022-08-17T09:53:44.547Z,1.00
2022-08-17T09:56:31.651Z,1.88
2022-08-17T09:59:38.212Z,1.48
2022-08-17T10:02:54.532Z,1.60
2022-08-17T10:05:46.708Z,1.60
2022-08-17T10:08:34.820Z,2.35
2022-08-17T10:11:54.282Z,1.27
2022-08-17T10:14:43.810Z,1.33
2022-08-17T10:17:42.390Z,1.17
2022-08-17T10:20:14.148Z,1.50
2022-08-17T10:23:13.811Z,1.13
2022-08-17T10:26:04.960Z,2.05
2022-08-17T10:29:10.422Z,1.83
2022-08-17T10:31:53.312Z,1.80
2022-08-17T10:34:29.910Z,1.58
2022-08-17T10:37:42.332Z,2.08
2022-08-17T10:40:47.582Z,1.30
2022-08-17T10:44:36.626Z,1.65
2022-08-17T10:47:09.023Z,1.48
2022-08-17T10:49:47.836Z,0.98
2022-08-17T10:52:27.856Z,1.25
2022-08-17T10:54:58.733Z,1.10
2022-08-17T10:57:40.110Z,1.45
2022-08-17T11:00:35.221Z,1.00
2022-08-17T11:03:15.001Z,1.17
2022-08-17T11:06:12.772Z,1.63
2022-08-17T11:09:24.809Z,1.60
2022-08-17T11:12:26.719Z,1.75
2022-08-17T11:15:45.968Z,1.10
2022-08-17T11:18:53.556Z,1.25
2022-08-17T11:21:32.206Z,1.10
2022-08-17T11:24:18.578Z,1.52
2022-08-17T11:27:24.866Z,1.70
2022-08-17T11:30:07.393Z,0.68
2022-08-17T11:32:37.499Z,1.00
2022-08-17T11:35:23.378Z,1.13
2022-08-17T11:38:34.967Z,1.35
2022-08-17T11:41:20.327Z,1.33
2022-08-17T11:44:22.023Z,1.27
2022-08-17T11:48:16.138Z,1.15
2022-08-17T11:51:24.252Z,1.17
2022-08-17T11:54:14.755Z,1.00
2022-08-17T11:56:51.364Z,1.38
2022-08-17T11:59:34.517Z,1.45
2022-08-17T12:02:27.608Z,2.10
2022-08-17T12:05:16.909Z,1.80
2022-08-17T12:07:56.532Z,1.63
2022-08-17T12:10:32.212Z,0.90
2022-08-17T12:13:15.748Z,1.35
2022-08-17T12:15:50.172Z,0.88
2022-08-17T12:18:41.810Z,1.10
2022-08-17T12:21:46.330Z,1.20
2022-08-17T12:24:41.252Z,1.85
2022-08-17T12:27:13.243Z,1.40
2022-08-17T12:29:45.178Z,1.13
2022-08-17T12:32:20.537Z,1.33
2022-08-17T12:34:51.140Z,1.10
2022-08-17T12:37:24.965Z,1.17
2022-08-17T12:40:27.080Z,0.77
2022-08-17T12:43:02.435Z,1.98
2022-08-17T12:45:41.849Z,1.33
2022-08-17T12:48:13.721Z,1.20
2022-08-17T12:50:45.818Z,1.15
2022-08-17T12:53:23.757Z,1.30
2022-08-17T12:55:52.199Z,1.50
2022-08-17T12:58:25.050Z,1.23
2022-08-17T13:01:01.045Z,1.38
2022-08-17T13:03:36.319Z,1.50
2022-08-17T13:06:09.601Z,1.35
2022-08-17T13:08:42.847Z,1.13
2022-08-17T13:11:22.489Z,1.60
2022-08-17T13:13:55.074Z,1.13
2022-08-17T13:16:27.576Z,1.27
2022-08-17T13:19:13.114Z,1.40
2022-08-17T13:21:49.083Z,1.10
2022-08-17T13:24:31.048Z,1.80
2022-08-17T13:27:13.460Z,1.27
2022-08-17T13:29:53.712Z,1.20
2022-08-17T13:32:33.550Z,1.75
2022-08-17T13:35:29.766Z,1.13
2022-08-17T13:38:30.651Z,1.25
2022-08-17T13:40:58.294Z,1.40
2022-08-17T13:43:50.623Z,1.50
2022-08-17T13:46:28.590Z,1.73
2022-08-17T13:49:09.754Z,1.55
2022-08-17T13:51:44.926Z,1.85
2022-08-17T13:54:36.945Z,1.20
2022-08-17T13:57:25.198Z,1.58
2022-08-17T14:00:12.623Z,0.77
2022-08-17T14:02:40.191Z,1.20
2022-08-17T14:05:08.222Z,5.32
2022-08-17T14:07:40.325Z,3.45
2022-08-17T14:10:18.398Z,2.45
2022-08-17T14:15:18.143Z,1.13
2022-08-17T14:17:46.216Z,1.20
2022-08-17T14:20:16.090Z,1.40
2022-08-17T14:22:50.634Z,1.30
2022-08-17T14:25:27.687Z,2.05
2022-08-17T14:27:55.947Z,2.35
2022-08-17T14:30:29.024Z,2.60
2022-08-17T14:32:58.797Z,1.25
2022-08-17T14:35:28.245Z,1.58
2022-08-17T14:37:56.400Z,1.35
2022-08-17T14:40:25.534Z,2.70
2022-08-17T14:42:56.530Z,1.40
2022-08-17T14:45:29.871Z,1.65
2022-08-17T14:48:04.544Z,1.25
2022-08-17T14:50:35.813Z,1.52
2022-08-17T14:53:06.566Z,1.50
2022-08-17T14:55:34.642Z,1.25
2022-08-17T14:58:04.071Z,1.20
2022-08-17T15:00:33.190Z,1.30
2022-08-17T15:03:01.551Z,1.38
2022-08-17T15:05:35.437Z,1.50
2022-08-17T15:08:05.615Z,1.65
2022-08-17T15:10:33.590Z,1.17
2022-08-17T15:13:01.680Z,1.88
2022-08-17T15:15:29.949Z,1.25
2022-08-17T15:17:58.248Z,1.20
2022-08-17T15:20:29.928Z,1.15
2022-08-17T15:22:59.350Z,1.27
2022-08-17T15:25:32.220Z,1.30
2022-08-17T15:28:01.256Z,1.10
2022-08-17T15:30:30.152Z,1.38
2022-08-17T15:33:02.786Z,1.23
2022-08-17T15:35:33.985Z,1.42
2022-08-17T15:38:11.764Z,1.60
2022-08-17T15:40:46.420Z,1.63
2022-08-17T15:43:27.718Z,2.00
2022-08-17T15:46:03.080Z,1.77
2022-08-17T15:48:43.394Z,1.60
2022-08-17T15:51:24.989Z,1.20
2022-08-17T15:54:19.211Z,0.88
2022-08-17T15:56:50.831Z,1.25
2022-08-17T15:59:19.460Z,1.30
2022-08-17T16:03:12.973Z,1.30
2022-08-17T16:04:34.955Z,0.95
2022-08-17T16:07:04.532Z,1.38
2022-08-17T16:09:32.038Z,1.67
2022-08-17T16:12:10.392Z,1.63
2022-08-17T16:14:38.117Z,1.63
2022-08-17T16:17:39.830Z,1.40
2022-08-17T16:22:41.149Z,1.60
2022-08-17T16:25:16.816Z,1.88
2022-08-17T16:27:46.700Z,1.70
2022-08-17T16:30:17.523Z,2.17
2022-08-17T16:32:47.849Z,1.90
2022-08-17T16:35:18.286Z,2.17
2022-08-17T16:37:46.854Z,1.48
2022-08-17T16:40:18.159Z,2.83
2022-08-17T16:42:48.572Z,2.58
2022-08-17T16:45:29.284Z,2.05
2022-08-17T16:47:59.207Z,2.15
2022-08-17T16:50:27.399Z,2.50
2022-08-17T16:53:06.537Z,2.17
2022-08-17T16:55:38.022Z,2.25
2022-08-17T16:58:08.803Z,2.22
2022-08-17T17:00:37.820Z,1.65
2022-08-17T17:03:20.560Z,2.67
2022-08-17T17:06:14.197Z,2.40
2022-08-17T17:09:06.975Z,2.00
2022-08-17T17:11:46.414Z,2.58
2022-08-17T17:14:46.249Z,1.92
2022-08-17T17:17:37.201Z,2.80
2022-08-17T17:20:13.776Z,2.85
2022-08-17T17:22:59.144Z,2.15
2022-08-17T17:25:59.935Z,2.20
2022-08-17T17:29:00.837Z,2.03
2022-08-17T17:31:38.348Z,2.53
2022-08-17T17:34:10.930Z,1.83
2022-08-17T17:36:56.880Z,2.60
2022-08-17T17:39:55.823Z,2.20
2022-08-17T17:42:31.501Z,2.35
2022-08-17T17:45:20.742Z,2.63
2022-08-17T17:47:48.601Z,2.42
2022-08-17T17:50:21.552Z,2.47
2022-08-17T17:53:17.208Z,1.80
2022-08-17T17:56:43.588Z,2.33
2022-08-17T17:59:36.684Z,2.10
2022-08-17T18:02:57.980Z,3.35
2022-08-17T18:05:55.516Z,2.00
2022-08-17T18:08:49.265Z,2.05
2022-08-17T18:11:25.152Z,2.97
2022-08-17T18:14:33.149Z,2.80
2022-08-17T18:17:02.251Z,2.55
2022-08-17T18:19:31.322Z,2.80
2022-08-17T18:22:17.138Z,2.38
2022-08-17T18:24:54.074Z,2.50
2022-08-17T18:27:51.301Z,3.20
2022-08-17T18:30:19.476Z,3.20
2022-08-17T18:32:47.538Z,2.22
2022-08-17T18:35:14.971Z,2.95
2022-08-17T18:37:58.597Z,2.28
2022-08-17T18:40:32.966Z,2.63
2022-08-17T18:43:13.349Z,2.47
2022-08-17T18:45:54.494Z,2.70
2022-08-17T18:48:49.660Z,2.67
2022-08-17T18:51:42.117Z,2.10
2022-08-17T18:54:25.482Z,2.70
2022-08-17T18:56:56.928Z,2.20
2022-08-17T18:59:48.261Z,2.10
2022-08-17T19:02:38.676Z,2.47
2022-08-17T19:05:39.368Z,2.78
2022-08-17T19:08:29.751Z,2.63
2022-08-17T19:11:28.767Z,3.60
2022-08-17T19:14:11.976Z,3.17
2022-08-17T19:16:57.893Z,3.10
2022-08-17T19:20:02.360Z,2.58
2022-08-17T19:22:50.203Z,3.08
2022-08-17T19:25:29.334Z,2.93
2022-08-17T19:28:34.915Z,2.92
2022-08-17T19:31:16.693Z,3.67
2022-08-17T19:33:47.939Z,3.67
2022-08-17T19:36:21.619Z,4.07
2022-08-17T19:39:38.047Z,3.40
2022-08-17T19:43:06.591Z,3.75
2022-08-17T19:49:34.476Z,2.95
2022-08-17T19:58:51.428Z,3.50
2022-08-17T20:01:54.793Z,3.22
2022-08-17T20:04:31.787Z,3.08
2022-08-17T20:07:11.239Z,2.83
2022-08-17T20:12:25.963Z,3.13
2022-08-17T20:15:04.457Z,2.83
2022-08-17T20:17:39.325Z,2.53
2022-08-17T20:20:39.525Z,2.65
2022-08-17T20:23:55.967Z,3.35
2022-08-17T20:26:55.440Z,2.83
2022-08-17T20:29:55.355Z,2.40
2022-08-17T20:32:31.194Z,2.50
2022-08-17T20:35:39.568Z,2.78
2022-08-17T20:38:46.166Z,1.95
2022-08-17T20:41:20.827Z,2.22
2022-08-17T20:44:04.034Z,2.42
2022-08-17T20:46:40.386Z,2.30
2022-08-17T20:49:11.247Z,2.80
2022-08-17T20:52:13.551Z,2.65
2022-08-17T20:54:54.696Z,2.63
2022-08-17T20:57:37.531Z,2.33
2022-08-17T21:00:28.134Z,2.67
2022-08-17T21:03:23.428Z,2.85
2022-08-17T21:06:15.406Z,2.38
2022-08-17T21:09:27.709Z,2.78
2022-08-17T21:12:04.044Z,3.35
2022-08-17T21:14:56.294Z,2.47
2022-08-17T21:18:08.310Z,3.03
2022-08-17T21:20:48.897Z,2.97
2022-08-17T21:23:57.617Z,2.28
2022-08-17T21:29:30.877Z,2.58
2022-08-17T21:32:09.632Z,2.10
2022-08-17T21:34:44.793Z,1.90
2022-08-17T21:37:29.489Z,2.83
2022-08-17T21:40:27.340Z,2.60
2022-08-17T21:43:08.305Z,2.25
2022-08-17T21:45:43.233Z,2.08
2022-08-17T21:48:20.119Z,2.22
2022-08-17T21:51:10.581Z,2.40
2022-08-17T21:53:50.250Z,2.45
2022-08-17T21:56:40.758Z,3.03
2022-08-17T21:59:35.641Z,1.77
2022-08-17T22:02:32.388Z,1.85
2022-08-17T22:05:03.221Z,2.53
2022-08-17T22:07:50.886Z,1.50
2022-08-17T22:10:43.685Z,1.98
2022-08-17T22:13:30.153Z,2.25
2022-08-17T22:16:28.367Z,1.65
2022-08-17T22:18:59.241Z,1.98
2022-08-17T22:21:27.375Z,1.98
2022-08-17T22:24:18.028Z,2.30
2022-08-17T22:27:07.634Z,3.35
2022-08-17T22:29:57.358Z,3.22
2022-08-17T22:32:41.516Z,1.92
2022-08-17T22:35:32.852Z,3.22
2022-08-17T22:38:18.632Z,3.50
2022-08-17T22:40:52.326Z,3.28
2022-08-17T22:43:28.677Z,2.70
2022-08-17T22:46:00.706Z,3.10
2022-08-17T22:48:31.213Z,2.63
2022-08-17T22:51:12.588Z,1.80
2022-08-17T22:54:36.431Z,2.05
2022-08-17T22:57:23.836Z,2.03
2022-08-17T22:59:55.673Z,2.15
2022-08-17T23:02:26.987Z,2.58
2022-08-17T23:05:16.854Z,2.22
2022-08-17T23:07:47.257Z,2.55
2022-08-17T23:10:15.277Z,2.33
2022-08-17T23:12:42.891Z,2.72
2022-08-17T23:15:18.996Z,2.30
2022-08-17T23:17:47.776Z,1.95
2022-08-17T23:20:17.606Z,2.20
2022-08-17T23:22:52.577Z,2.33
2022-08-17T23:25:33.650Z,1.50
2022-08-17T23:28:03.701Z,2.05
2022-08-17T23:30:36.019Z,2.67
2022-08-17T23:33:30.363Z,2.05
2022-08-17T23:35:58.895Z,1.70
2022-08-17T23:38:27.422Z,1.83
2022-08-17T23:40:55.992Z,1.88
2022-08-17T23:45:58.569Z,1.50
2022-08-17T23:48:34.921Z,1.65
2022-08-17T23:51:14.139Z,1.60
2022-08-17T23:53:50.130Z,2.17
2022-08-17T23:56:24.323Z,2.55
2022-08-17T23:58:55.585Z,2.50
